Pahranagat National Wildlife Refuge, Nevada Weather observations

Data are for 10 minute period ending at time listed.
 Day   Time   Solar   Ave.   Ave.  Ave.  Vector  Max.   Baro.   Total    
  of    of     Rad.   Air    Rel.  Wind   Wind   Wind  Press.  Precip.   
Year   Day            Temp.  Hum.  Speed  Dir.   Gust                    
2016   (PST)  Kw/m2    F      %     mph   deg.    mph    mb.     in.     
-------------------------------------------------------------------------
  43   10:50   0.52   58.0    31    8.6   319    12.5   911.9    0.00 
  43   11:00   0.48   58.8    30    8.4   324    11.6   911.7    0.00 
  43   11:10   0.49   59.5    30    8.0   334    11.2   911.6    0.00 
  43   11:20   0.52   60.3    27    7.8   317    12.2   911.5    0.00 
  43   11:30   0.53   61.2    26    7.4   314    10.7   911.2    0.00 
  43   11:40   0.51   61.9    26    7.5   316    11.7   911.0    0.00 
  43   11:50   0.53   62.7    24    7.3   312     9.9   910.7    0.00 
  43   12:00   0.54   63.4    24    6.7   309    10.4   910.5    0.00 
  43   12:10   0.56   63.9    22    6.0   315     9.1   910.3    0.00 
  43   12:20   0.48   65.2    22    5.8   314     8.5   910.0    0.00 
  43   12:30   0.46   65.6    19    5.5   305     8.0   909.8    0.00 
  43   12:40   0.47   66.0    19    3.8   297     6.7   909.5    0.00 
  43   12:50   0.52   67.0    19    3.6   300     7.2   909.2    0.00 
  43   13:00   0.50   67.2    18    4.1   325     7.5   909.0    0.00 
  43   13:10   0.48   68.0    16    2.8   312     5.8   908.8    0.00 
  43   13:20   0.48   68.5    16    2.5   271     4.8   908.6    0.00 
  43   13:30   0.42   69.4    16    2.5   343     5.6   908.5    0.00 
  43   13:40   0.34   69.3    15    1.7   325     3.8   908.3    0.00 
  43   13:50   0.30   70.0    15    0.8    18     3.4   908.1    0.00 
  43   14:00   0.34   71.2    15    0.8   266     3.2   908.0    0.00 
  43   14:10   0.27   71.6    14    1.5   138     2.9   908.0    0.00 
  43   14:20   0.27   70.1    15    1.4   240     3.7   907.9    0.00 
  43   14:30   0.30   71.2    14    0.3   243     2.9   907.8    0.00 
  43   14:40   0.37   73.3    13    0.3   235     1.5   907.7    0.00 
  43   14:50   0.33   73.9    13    0.5   211     2.6   907.6    0.00 
  43   15:00   0.29   73.3    13    1.1   278     3.1   907.5    0.00 
  43   15:10   0.23   71.7    14    0.6   297     2.0   907.5    0.00 
  43   15:20   0.20   71.7    14    0.7    58     2.2   907.6    0.00 
  43   15:30   0.17   71.4    14    0.7   163     1.8   907.6    0.00 
  43   15:40   0.20   72.0    14    0.2   198     1.2   907.6    0.00 
  43   15:50   0.20   73.0    14    0.6   212     1.7   907.5    0.00 
  43   16:00   0.15   72.2    14    0.6   184     2.0   907.5    0.00 
  43   16:10   0.13   70.7    14    2.7   144     4.0   907.5    0.00 
  43   16:20   0.09   69.6    15    2.0   145     2.8   907.5    0.00 
  43   16:30   0.07   68.4    16    2.1   140     2.8   907.5    0.00 
  43   16:40   0.05   67.3    17    2.0   150     2.7   907.6    0.00 
  43   16:50   0.04   66.5    18    1.6   171     1.9   907.7    0.00 
  43   17:00   0.02   64.4    21    1.6   179     1.9   907.7    0.00 
  43   17:10   0.01   63.2    22    1.0   157     2.3   907.8    0.00 
  43   17:20   0.01   61.1    27    0.6   202     2.5   907.9    0.00 
  43   17:30   0.00   58.9    30    0.1   267     0.9   907.9    0.00 
  43   17:40   0.00   57.1    31    0.6    47     2.2   907.9    0.00 
  43   17:50   0.00   54.8    32    0.9    99     2.0   908.0    0.00 
  43   18:00   0.00   55.8    32    0.7   243     2.1   908.0    0.00 
  43   18:10   0.00   53.2    41    0.7   338     2.1   908.1    0.00 
  43   18:20   0.00   49.7    45    2.5   341     3.3   908.1    0.00 
  43   18:30   0.00   49.1    42    1.3   334     1.9   908.1    0.00 
  43   18:40   0.00   46.0    61    1.0   284     1.8   908.1    0.00 
  43   18:50   0.00   45.4    67    1.1   316     2.0   908.2    0.00 
  43   19:00   0.00   45.4    55    0.8   313     1.4   908.2    0.00 
  43   19:10   0.00   44.3    53    1.0   326     1.7   908.2    0.00 
  43   19:20   0.00   43.0    53    0.8   327     1.5   908.2    0.00 
  43   19:30   0.00   43.2    54    1.3   336     2.4   908.3    0.00 
  43   19:40   0.00   41.9    58    1.6   322     3.3   908.3    0.00 
  43   19:50   0.00   41.6    62    1.2   308     2.3   908.3    0.00 
  43   20:00   0.00   41.6    57    0.5     4     1.9   908.3    0.00 
  43   20:10   0.00   41.8    55    2.0   345     2.9   908.3    0.00 
  43   20:20   0.00   41.8    56    4.5   354     6.3   908.3    0.00 
  43   20:30   0.00   41.9    57    5.7   348     6.6   908.4    0.00 
  43   20:40   0.00   40.8    57    4.0   335     5.1   908.5    0.00 
  43   20:50   0.00   41.5    57    3.9   331     5.6   908.6    0.00 
  43   21:00   0.00   41.7    58    4.5   338     6.5   908.6    0.00 
  43   21:10   0.00   44.0    56    5.5   343     6.9   908.7    0.00 
  43   21:20   0.00   44.2    56    4.7   330     6.0   908.8    0.00 
  43   21:30   0.00   42.7    59    4.6   337     5.7   908.9    0.00 
  43   21:40   0.00   41.5    61    4.3   340     6.5   908.9    0.00 
  43   21:50   0.00   41.2    61    4.0   328     5.2   908.9    0.00 
  43   22:00   0.00   40.2    58    2.9   337     3.7   908.8    0.00 
  43   22:10   0.00   40.1    62    2.5   326     3.4   908.8    0.00 
  43   22:20   0.00   40.5    63    2.0   290     2.8   908.8    0.00 
  43   22:30   0.00   38.9    64    1.0   310     2.6   908.7    0.00 
  43   22:40   0.00   37.5    68    0.2   297     1.2   908.7    0.00 
  43   22:50   0.00   36.1    70    0.4   295     1.2   908.7    0.00 
  43   23:00   0.00   35.6    73    0.1   311     0.8   908.6    0.00 
  43   23:10   0.00   36.1    73    0.2   331     0.8   908.6    0.00 
  43   23:20   0.00   35.6    72    0.6   307     1.6   908.5    0.00 
  43   23:30   0.00   35.1    74    0.6   272     1.7   908.5    0.00 
  43   23:40   0.00   37.3    72    1.5   327     2.6   908.5    0.00 
  43   23:50   0.00   36.3    71    1.8   311     3.8   908.5    0.00 
  44    0:00   0.00   35.9    73    2.7   331     4.6   908.5    0.00 
  44    0:10   0.00   35.0    72    0.6   350     3.1   908.5    0.00 
  44    0:20   0.00   35.4    73    2.4   346     3.7   908.5    0.00 
  44    0:30   0.00   34.2    72    2.2   316     3.7   908.5    0.00 
  44    0:40   0.00   35.6    70    1.5   310     2.7   908.5    0.00 
  44    0:50   0.00   36.6    68    3.2   289     4.5   908.5    0.00 
  44    1:00   0.00   36.6    68    2.6   314     4.5   908.5    0.00 
  44    1:10   0.00   35.7    71    0.7     5     1.9   908.5    0.00 
  44    1:20   0.00   35.1    74    0.2   270     1.2   908.5    0.00 
  44    1:30   0.00   35.0    75    0.7   299     1.5   908.5    0.00 
  44    1:40   0.00   33.3    76    0.7   312     1.2   908.6    0.00 
  44    1:50   0.00   32.4    77    1.2   319     1.9   908.6    0.00 
  44    2:00   0.00   31.5    80    0.8   330     1.8   908.6    0.00 
  44    2:10   0.00   32.7    79    1.1   329     3.8   908.6    0.00 
  44    2:20   0.00   34.5    76    5.0   332     6.5   908.5    0.00 
  44    2:30   0.00   35.5    73    5.7   323     8.3   908.6    0.00 
  44    2:40   0.00   37.0    72    8.7   330    10.2   908.5    0.00 
  44    2:50   0.00   36.9    71    8.0   336     9.9   908.6    0.00 
  44    3:00   0.00   35.3    71    5.4   302     7.4   908.6    0.00 
  44    3:10   0.00   35.3    74    4.7   318     7.0   908.5    0.00 
  44    3:20   0.00   34.4    77    3.6   308     4.5   908.5    0.00 
  44    3:30   0.00   35.4    75    3.8   334     8.0   908.5    0.00 
  44    3:40   0.00   34.4    75    3.4   329     5.6   908.5    0.00 
  44    3:50   0.00   37.2    72    5.6   328     7.0   908.5    0.00 
  44    4:00   0.00   36.6    71    5.3   337     6.3   908.5    0.00 
  44    4:10   0.00   35.0    74    4.2   338     6.1   908.6    0.00 
  44    4:20   0.00   32.0    77    3.0   334     4.2   908.7    0.00 
  44    4:30   0.00   32.0    81    1.7   350     3.0   908.7    0.00 
  44    4:40   0.00   32.4    80    2.0   318     2.8   908.7    0.00 
  44    4:50   0.00   31.7    80    3.2   346     4.9   908.8    0.00 
  44    5:00   0.00   33.2    79    4.3   337     5.3   908.8    0.00 
  44    5:10   0.00   34.1    78    5.9   346     6.7   908.8    0.00 
  44    5:20   0.00   33.2    78    5.3     2     6.0   908.8    0.00 
  44    5:30   0.00   33.6    80    4.0   355     5.3   908.9    0.00 
  44    5:40   0.00   33.7    78    4.4   352     5.3   908.9    0.00 
  44    5:50   0.00   33.2    79    4.3   342     5.1   909.0    0.00 
  44    6:00   0.00   33.5    78    3.6   343     6.4   909.0    0.00 
  44    6:10   0.00   33.3    76    4.7   352     5.7   909.1    0.00 
  44    6:20   0.00   32.5    78    2.7   313     5.6   909.1    0.00 
  44    6:30   0.00   34.3    78    5.9   299    10.7   909.2    0.00 
  44    6:40   0.01   35.5    74    6.1   291     9.4   909.3    0.00 
  44    6:50   0.01   33.6    78    4.4   294     6.1   909.4    0.00 
  44    7:00   0.03   34.4    78    6.4   306     8.3   909.4    0.00 
  44    7:10   0.06   35.8    74    5.0   291     6.9   909.5    0.00 
  44    7:20   0.08   37.0    72    3.8   289     5.1   909.5    0.00 
  44    7:30   0.10   38.3    68    2.7   310     4.3   909.7    0.00 
  44    7:40   0.12   39.3    67    3.8   306     8.1   909.6    0.00 
  44    7:50   0.15   40.9    63    8.2   338    12.3   909.6    0.00 
  44    8:00   0.17   41.8    61    9.3   339    12.6   909.7    0.00 
  44    8:10   0.19   42.3    60    7.6   341    11.1   909.9    0.00 
  44    8:20   0.22   43.8    57    7.4   321    10.6   910.0    0.00 
  44    8:30   0.25   44.9    55    8.5   319    11.5   910.1    0.00 
  44    8:40   0.26   45.7    52    8.7   332    11.7   910.1    0.00 
  44    8:50   0.30   46.5    52    9.4   326    12.9   910.1    0.00 
  44    9:00   0.32   47.8    50    8.0   325    10.5   910.2    0.00 
  44    9:10   0.33   49.2    47    8.1   333    10.5   910.2    0.00 
  44    9:20   0.37   50.3    44    7.2   327     9.7   910.1    0.00 
  44    9:30   0.42   51.9    42    9.3   319    12.6   910.1    0.00 
  44    9:40   0.28   52.6    41    9.6   323    14.0   910.0    0.00 
  44    9:50   0.23   52.1    41    7.0   334     9.3   910.0    0.00 
  44   10:00   0.35   53.2    41    7.5   330     9.6   909.9    0.00 
  44   10:10   0.39   54.5    38    7.5   316     9.6   909.8    0.00 
  44   10:20   0.40   55.4    36    7.5   314     9.9   909.7    0.00 
  44   10:30   0.35   56.0    34    6.9   311     9.6   909.6    0.00 
  44   10:40   0.36   57.1    32    7.6   325    11.0   909.5    0.00 

Return to Pahranagat N. Wildlife Refuge graphs page.


Western Regional Climate Center,wrcc@dri.edu